sensor_id;sensor_type;location;lat;lon;timestamp;temperature;humidity
65046;DHT22;54657;52.022;5.534;2022-11-02T00:00:41;14.00;75.70
65046;DHT22;54657;52.022;5.534;2022-11-02T00:03:08;14.00;75.30
65046;DHT22;54657;52.022;5.534;2022-11-02T00:05:33;14.00;75.50
65046;DHT22;54657;52.022;5.534;2022-11-02T00:07:59;14.00;75.50
65046;DHT22;54657;52.022;5.534;2022-11-02T00:10:24;14.00;75.50
65046;DHT22;54657;52.022;5.534;2022-11-02T00:12:51;14.00;75.40
65046;DHT22;54657;52.022;5.534;2022-11-02T00:15:17;14.10;75.00
65046;DHT22;54657;52.022;5.534;2022-11-02T00:17:46;14.10;75.10
65046;DHT22;54657;52.022;5.534;2022-11-02T00:20:14;14.10;75.30
65046;DHT22;54657;52.022;5.534;2022-11-02T00:22:42;14.10;75.70
65046;DHT22;54657;52.022;5.534;2022-11-02T00:25:09;14.10;75.20
65046;DHT22;54657;52.022;5.534;2022-11-02T00:27:37;14.10;75.40
65046;DHT22;54657;52.022;5.534;2022-11-02T00:30:03;14.10;75.30
65046;DHT22;54657;52.022;5.534;2022-11-02T00:32:29;14.20;75.10
65046;DHT22;54657;52.022;5.534;2022-11-02T00:34:55;14.20;74.90
65046;DHT22;54657;52.022;5.534;2022-11-02T00:37:20;14.20;74.80
65046;DHT22;54657;52.022;5.534;2022-11-02T00:39:46;14.20;74.90
65046;DHT22;54657;52.022;5.534;2022-11-02T00:42:11;14.20;74.40
65046;DHT22;54657;52.022;5.534;2022-11-02T00:44:37;14.20;74.30
65046;DHT22;54657;52.022;5.534;2022-11-02T00:47:02;14.20;74.20
65046;DHT22;54657;52.022;5.534;2022-11-02T00:49:28;14.20;74.10
65046;DHT22;54657;52.022;5.534;2022-11-02T00:51:53;14.20;73.90
65046;DHT22;54657;52.022;5.534;2022-11-02T00:54:19;14.20;74.00
65046;DHT22;54657;52.022;5.534;2022-11-02T00:56:45;14.20;73.70
65046;DHT22;54657;52.022;5.534;2022-11-02T00:59:10;14.20;73.80
65046;DHT22;54657;52.022;5.534;2022-11-02T01:01:36;14.20;73.60
65046;DHT22;54657;52.022;5.534;2022-11-02T01:04:01;14.20;73.50
65046;DHT22;54657;52.022;5.534;2022-11-02T01:06:27;14.20;73.70
65046;DHT22;54657;52.022;5.534;2022-11-02T01:08:53;14.20;73.60
65046;DHT22;54657;52.022;5.534;2022-11-02T01:11:21;14.20;73.50
65046;DHT22;54657;52.022;5.534;2022-11-02T01:13:47;14.20;73.60
65046;DHT22;54657;52.022;5.534;2022-11-02T01:16:14;14.10;73.40
65046;DHT22;54657;52.022;5.534;2022-11-02T01:18:39;14.20;73.40
65046;DHT22;54657;52.022;5.534;2022-11-02T01:21:06;14.20;73.40
65046;DHT22;54657;52.022;5.534;2022-11-02T01:23:33;14.20;73.60
65046;DHT22;54657;52.022;5.534;2022-11-02T01:26:05;14.00;74.40
65046;DHT22;54657;52.022;5.534;2022-11-02T01:28:31;14.00;74.70
65046;DHT22;54657;52.022;5.534;2022-11-02T01:30:57;13.80;74.70
65046;DHT22;54657;52.022;5.534;2022-11-02T01:33:24;13.60;75.00
65046;DHT22;54657;52.022;5.534;2022-11-02T01:35:50;13.60;74.70
65046;DHT22;54657;52.022;5.534;2022-11-02T01:38:16;13.40;74.50
65046;DHT22;54657;52.022;5.534;2022-11-02T01:40:41;13.30;74.40
65046;DHT22;54657;52.022;5.534;2022-11-02T01:43:21;13.20;74.40
65046;DHT22;54657;52.022;5.534;2022-11-02T01:45:50;13.10;74.50
65046;DHT22;54657;52.022;5.534;2022-11-02T01:48:27;13.00;74.70
65046;DHT22;54657;52.022;5.534;2022-11-02T01:50:55;12.80;75.10
65046;DHT22;54657;52.022;5.534;2022-11-02T01:53:22;12.70;75.10
65046;DHT22;54657;52.022;5.534;2022-11-02T01:55:47;12.60;75.20
65046;DHT22;54657;52.022;5.534;2022-11-02T01:58:15;12.60;75.20
65046;DHT22;54657;52.022;5.534;2022-11-02T02:00:41;12.50;75.70
65046;DHT22;54657;52.022;5.534;2022-11-02T02:03:13;12.50;75.70
65046;DHT22;54657;52.022;5.534;2022-11-02T02:06:24;12.40;76.00
65046;DHT22;54657;52.022;5.534;2022-11-02T02:08:31;12.40;76.00
65046;DHT22;54657;52.022;5.534;2022-11-02T02:10:57;12.30;76.30
65046;DHT22;54657;52.022;5.534;2022-11-02T02:13:25;12.20;76.00
65046;DHT22;54657;52.022;5.534;2022-11-02T02:15:57;12.30;76.20
65046;DHT22;54657;52.022;5.534;2022-11-02T02:18:35;12.30;76.10
65046;DHT22;54657;52.022;5.534;2022-11-02T02:21:27;12.20;76.00
65046;DHT22;54657;52.022;5.534;2022-11-02T02:34:51;12.20;76.50
65046;DHT22;54657;52.022;5.534;2022-11-02T02:40:04;12.20;76.90
65046;DHT22;54657;52.022;5.534;2022-11-02T02:42:44;12.20;76.90
65046;DHT22;54657;52.022;5.534;2022-11-02T02:48:14;12.20;76.80
65046;DHT22;54657;52.022;5.534;2022-11-02T02:50:54;12.30;77.70
65046;DHT22;54657;52.022;5.534;2022-11-02T02:53:27;12.30;78.00
65046;DHT22;54657;52.022;5.534;2022-11-02T02:55:54;12.30;76.80
65046;DHT22;54657;52.022;5.534;2022-11-02T02:58:28;12.20;76.60
65046;DHT22;54657;52.022;5.534;2022-11-02T03:00:55;12.20;77.10
65046;DHT22;54657;52.022;5.534;2022-11-02T03:03:25;12.30;76.70
65046;DHT22;54657;52.022;5.534;2022-11-02T03:06:09;12.30;77.50
65046;DHT22;54657;52.022;5.534;2022-11-02T03:08:40;12.30;77.90
65046;DHT22;54657;52.022;5.534;2022-11-02T03:11:12;12.20;77.30
65046;DHT22;54657;52.022;5.534;2022-11-02T03:19:19;12.40;76.80
65046;DHT22;54657;52.022;5.534;2022-11-02T03:21:53;12.50;76.50
65046;DHT22;54657;52.022;5.534;2022-11-02T03:24:26;12.50;75.90
65046;DHT22;54657;52.022;5.534;2022-11-02T03:30:01;12.50;77.10
65046;DHT22;54657;52.022;5.534;2022-11-02T03:32:44;12.50;76.60
65046;DHT22;54657;52.022;5.534;2022-11-02T03:35:20;12.50;76.80
65046;DHT22;54657;52.022;5.534;2022-11-02T03:38:04;12.50;76.70
65046;DHT22;54657;52.022;5.534;2022-11-02T03:40:43;12.50;77.40
65046;DHT22;54657;52.022;5.534;2022-11-02T03:43:10;12.50;76.10
65046;DHT22;54657;52.022;5.534;2022-11-02T03:45:39;12.60;75.80
65046;DHT22;54657;52.022;5.534;2022-11-02T03:48:09;12.60;75.50
65046;DHT22;54657;52.022;5.534;2022-11-02T03:50:38;12.60;75.90
65046;DHT22;54657;52.022;5.534;2022-11-02T03:53:09;12.60;75.60
65046;DHT22;54657;52.022;5.534;2022-11-02T03:55:39;12.60;76.10
65046;DHT22;54657;52.022;5.534;2022-11-02T03:58:08;12.70;75.50
65046;DHT22;54657;52.022;5.534;2022-11-02T04:00:36;12.60;75.30
65046;DHT22;54657;52.022;5.534;2022-11-02T04:03:03;12.70;75.20
65046;DHT22;54657;52.022;5.534;2022-11-02T04:05:33;12.70;75.20
65046;DHT22;54657;52.022;5.534;2022-11-02T04:07:59;12.70;75.10
65046;DHT22;54657;52.022;5.534;2022-11-02T04:10:44;12.70;75.00
65046;DHT22;54657;52.022;5.534;2022-11-02T04:13:28;12.70;75.10
65046;DHT22;54657;52.022;5.534;2022-11-02T04:16:13;12.60;75.00
65046;DHT22;54657;52.022;5.534;2022-11-02T04:18:40;12.70;75.00
65046;DHT22;54657;52.022;5.534;2022-11-02T04:21:24;12.70;75.20
65046;DHT22;54657;52.022;5.534;2022-11-02T04:23:50;12.70;74.90
65046;DHT22;54657;52.022;5.534;2022-11-02T04:26:34;12.70;74.70
65046;DHT22;54657;52.022;5.534;2022-11-02T04:28:59;12.70;75.00
65046;DHT22;54657;52.022;5.534;2022-11-02T04:31:25;12.70;74.90
65046;DHT22;54657;52.022;5.534;2022-11-02T04:33:50;12.80;74.70
65046;DHT22;54657;52.022;5.534;2022-11-02T04:36:16;12.90;74.50
65046;DHT22;54657;52.022;5.534;2022-11-02T04:38:41;12.90;74.20
65046;DHT22;54657;52.022;5.534;2022-11-02T04:41:18;12.90;74.20
65046;DHT22;54657;52.022;5.534;2022-11-02T04:44:03;13.00;74.30
65046;DHT22;54657;52.022;5.534;2022-11-02T04:46:31;13.00;74.30
65046;DHT22;54657;52.022;5.534;2022-11-02T04:48:57;13.00;73.90
65046;DHT22;54657;52.022;5.534;2022-11-02T04:51:24;13.10;73.90
65046;DHT22;54657;52.022;5.534;2022-11-02T04:53:51;13.10;74.00
65046;DHT22;54657;52.022;5.534;2022-11-02T04:56:17;13.10;73.90
65046;DHT22;54657;52.022;5.534;2022-11-02T04:58:47;13.10;73.80
65046;DHT22;54657;52.022;5.534;2022-11-02T05:01:14;13.10;73.80
65046;DHT22;54657;52.022;5.534;2022-11-02T05:03:40;13.10;73.80
65046;DHT22;54657;52.022;5.534;2022-11-02T05:06:06;13.10;73.90
65046;DHT22;54657;52.022;5.534;2022-11-02T05:08:31;13.10;73.90
65046;DHT22;54657;52.022;5.534;2022-11-02T05:10:58;13.10;73.70
65046;DHT22;54657;52.022;5.534;2022-11-02T05:13:25;13.10;73.90
65046;DHT22;54657;52.022;5.534;2022-11-02T05:15:51;13.10;74.60
65046;DHT22;54657;52.022;5.534;2022-11-02T05:18:19;13.10;74.10
65046;DHT22;54657;52.022;5.534;2022-11-02T05:20:52;13.10;74.00
65046;DHT22;54657;52.022;5.534;2022-11-02T05:23:19;13.10;74.20
65046;DHT22;54657;52.022;5.534;2022-11-02T05:26:01;13.10;74.10
65046;DHT22;54657;52.022;5.534;2022-11-02T05:28:27;13.10;74.50
65046;DHT22;54657;52.022;5.534;2022-11-02T05:30:53;13.20;74.20
65046;DHT22;54657;52.022;5.534;2022-11-02T05:33:20;13.10;74.20
65046;DHT22;54657;52.022;5.534;2022-11-02T05:35:46;13.20;74.10
65046;DHT22;54657;52.022;5.534;2022-11-02T05:38:12;13.10;74.30
65046;DHT22;54657;52.022;5.534;2022-11-02T05:40:37;13.10;74.30
65046;DHT22;54657;52.022;5.534;2022-11-02T05:43:08;13.20;74.40
65046;DHT22;54657;52.022;5.534;2022-11-02T05:45:35;13.10;74.80
65046;DHT22;54657;52.022;5.534;2022-11-02T05:48:02;13.10;74.60
65046;DHT22;54657;52.022;5.534;2022-11-02T05:50:31;13.10;74.80
65046;DHT22;54657;52.022;5.534;2022-11-02T05:52:56;13.10;74.60
65046;DHT22;54657;52.022;5.534;2022-11-02T05:55:22;13.10;74.80
65046;DHT22;54657;52.022;5.534;2022-11-02T05:57:53;13.10;74.70
65046;DHT22;54657;52.022;5.534;2022-11-02T06:00:20;13.10;74.70
65046;DHT22;54657;52.022;5.534;2022-11-02T06:02:54;13.10;74.70
65046;DHT22;54657;52.022;5.534;2022-11-02T06:05:19;13.00;74.70
65046;DHT22;54657;52.022;5.534;2022-11-02T06:07:45;13.00;74.70
65046;DHT22;54657;52.022;5.534;2022-11-02T06:10:10;13.00;75.00
65046;DHT22;54657;52.022;5.534;2022-11-02T06:12:36;13.00;75.20
65046;DHT22;54657;52.022;5.534;2022-11-02T06:15:01;12.90;75.10
65046;DHT22;54657;52.022;5.534;2022-11-02T06:17:27;12.90;75.20
65046;DHT22;54657;52.022;5.534;2022-11-02T06:19:52;12.90;75.40
65046;DHT22;54657;52.022;5.534;2022-11-02T06:22:18;12.90;75.00
65046;DHT22;54657;52.022;5.534;2022-11-02T06:24:44;12.90;75.10
65046;DHT22;54657;52.022;5.534;2022-11-02T06:27:09;12.90;75.10
65046;DHT22;54657;52.022;5.534;2022-11-02T06:29:35;12.90;74.90
65046;DHT22;54657;52.022;5.534;2022-11-02T06:32:00;12.90;75.00
65046;DHT22;54657;52.022;5.534;2022-11-02T06:34:26;12.90;74.90
65046;DHT22;54657;52.022;5.534;2022-11-02T06:36:51;12.90;75.10
65046;DHT22;54657;52.022;5.534;2022-11-02T06:39:17;12.90;75.00
65046;DHT22;54657;52.022;5.534;2022-11-02T06:41:42;12.90;75.00
65046;DHT22;54657;52.022;5.534;2022-11-02T06:44:08;12.90;74.90
65046;DHT22;54657;52.022;5.534;2022-11-02T06:46:33;12.90;75.10
65046;DHT22;54657;52.022;5.534;2022-11-02T06:48:59;12.90;75.10
65046;DHT22;54657;52.022;5.534;2022-11-02T06:51:25;12.80;74.90
65046;DHT22;54657;52.022;5.534;2022-11-02T06:53:50;12.80;74.90
65046;DHT22;54657;52.022;5.534;2022-11-02T06:56:16;12.80;74.90
65046;DHT22;54657;52.022;5.534;2022-11-02T06:58:41;12.80;74.90
65046;DHT22;54657;52.022;5.534;2022-11-02T07:01:07;12.80;75.10
65046;DHT22;54657;52.022;5.534;2022-11-02T07:03:33;12.80;75.00
65046;DHT22;54657;52.022;5.534;2022-11-02T07:05:59;12.80;75.00
65046;DHT22;54657;52.022;5.534;2022-11-02T07:08:25;12.80;75.00
65046;DHT22;54657;52.022;5.534;2022-11-02T07:10:52;12.80;75.00
65046;DHT22;54657;52.022;5.534;2022-11-02T07:13:18;12.80;75.10
65046;DHT22;54657;52.022;5.534;2022-11-02T07:15:44;12.80;75.50
65046;DHT22;54657;52.022;5.534;2022-11-02T07:18:09;12.80;75.00
65046;DHT22;54657;52.022;5.534;2022-11-02T07:20:35;12.80;74.90
65046;DHT22;54657;52.022;5.534;2022-11-02T07:23:01;12.80;74.80
65046;DHT22;54657;52.022;5.534;2022-11-02T07:25:29;12.90;74.80
65046;DHT22;54657;52.022;5.534;2022-11-02T07:27:55;12.80;74.90
65046;DHT22;54657;52.022;5.534;2022-11-02T07:30:21;12.80;75.00
65046;DHT22;54657;52.022;5.534;2022-11-02T07:32:47;12.80;75.00
65046;DHT22;54657;52.022;5.534;2022-11-02T07:35:14;12.90;74.90
65046;DHT22;54657;52.022;5.534;2022-11-02T07:37:40;12.80;75.20
65046;DHT22;54657;52.022;5.534;2022-11-02T07:40:07;12.80;75.10
65046;DHT22;54657;52.022;5.534;2022-11-02T07:42:33;12.80;75.30
65046;DHT22;54657;52.022;5.534;2022-11-02T07:44:59;12.80;75.30
65046;DHT22;54657;52.022;5.534;2022-11-02T07:47:25;12.80;75.50
65046;DHT22;54657;52.022;5.534;2022-11-02T07:49:51;12.80;75.40
65046;DHT22;54657;52.022;5.534;2022-11-02T07:52:16;12.80;75.30
65046;DHT22;54657;52.022;5.534;2022-11-02T07:54:42;12.80;75.30
65046;DHT22;54657;52.022;5.534;2022-11-02T07:57:08;12.80;75.30
65046;DHT22;54657;52.022;5.534;2022-11-02T07:59:33;12.80;75.30
65046;DHT22;54657;52.022;5.534;2022-11-02T08:02:01;12.80;75.40
65046;DHT22;54657;52.022;5.534;2022-11-02T08:04:26;12.80;75.50
65046;DHT22;54657;52.022;5.534;2022-11-02T08:06:52;12.80;75.50
65046;DHT22;54657;52.022;5.534;2022-11-02T08:09:17;12.80;75.50
65046;DHT22;54657;52.022;5.534;2022-11-02T08:11:43;12.80;75.20
65046;DHT22;54657;52.022;5.534;2022-11-02T08:14:09;12.80;75.30
65046;DHT22;54657;52.022;5.534;2022-11-02T08:16:34;12.80;75.30
65046;DHT22;54657;52.022;5.534;2022-11-02T08:19:00;12.80;75.20
65046;DHT22;54657;52.022;5.534;2022-11-02T08:21:25;12.80;75.10
65046;DHT22;54657;52.022;5.534;2022-11-02T08:23:51;12.80;75.20
65046;DHT22;54657;52.022;5.534;2022-11-02T08:26:16;12.90;75.20
65046;DHT22;54657;52.022;5.534;2022-11-02T08:28:42;12.90;75.00
65046;DHT22;54657;52.022;5.534;2022-11-02T08:31:14;12.90;75.00
65046;DHT22;54657;52.022;5.534;2022-11-02T08:33:44;13.00;74.90
65046;DHT22;54657;52.022;5.534;2022-11-02T08:36:09;13.00;74.70
65046;DHT22;54657;52.022;5.534;2022-11-02T08:38:35;13.10;74.60
65046;DHT22;54657;52.022;5.534;2022-11-02T08:41:01;13.10;74.50
65046;DHT22;54657;52.022;5.534;2022-11-02T08:43:26;13.20;74.50
65046;DHT22;54657;52.022;5.534;2022-11-02T08:45:56;13.30;74.40
65046;DHT22;54657;52.022;5.534;2022-11-02T08:48:23;13.30;74.10
65046;DHT22;54657;52.022;5.534;2022-11-02T08:50:52;13.30;74.10
65046;DHT22;54657;52.022;5.534;2022-11-02T08:53:17;13.30;74.00
65046;DHT22;54657;52.022;5.534;2022-11-02T08:55:43;13.40;73.60
65046;DHT22;54657;52.022;5.534;2022-11-02T08:58:09;13.40;73.60
65046;DHT22;54657;52.022;5.534;2022-11-02T09:00:35;13.50;73.60
65046;DHT22;54657;52.022;5.534;2022-11-02T09:03:11;13.60;73.50
65046;DHT22;54657;52.022;5.534;2022-11-02T09:05:39;13.60;73.30
65046;DHT22;54657;52.022;5.534;2022-11-02T09:08:08;13.60;73.30
65046;DHT22;54657;52.022;5.534;2022-11-02T09:10:35;13.60;73.40
65046;DHT22;54657;52.022;5.534;2022-11-02T09:13:03;13.70;73.10
65046;DHT22;54657;52.022;5.534;2022-11-02T09:15:29;13.70;73.10
65046;DHT22;54657;52.022;5.534;2022-11-02T09:17:54;13.70;73.00
65046;DHT22;54657;52.022;5.534;2022-11-02T09:20:21;13.80;72.90
65046;DHT22;54657;52.022;5.534;2022-11-02T09:22:46;13.80;72.80
65046;DHT22;54657;52.022;5.534;2022-11-02T09:25:13;13.90;72.90
65046;DHT22;54657;52.022;5.534;2022-11-02T09:27:40;14.00;72.70
65046;DHT22;54657;52.022;5.534;2022-11-02T09:30:06;14.00;72.40
65046;DHT22;54657;52.022;5.534;2022-11-02T09:32:32;14.00;72.60
65046;DHT22;54657;52.022;5.534;2022-11-02T09:35:07;14.00;72.60
65046;DHT22;54657;52.022;5.534;2022-11-02T09:37:33;14.10;72.40
65046;DHT22;54657;52.022;5.534;2022-11-02T09:39:59;14.20;72.40
65046;DHT22;54657;52.022;5.534;2022-11-02T09:42:30;14.30;72.30
65046;DHT22;54657;52.022;5.534;2022-11-02T09:45:16;14.30;71.80
65046;DHT22;54657;52.022;5.534;2022-11-02T09:47:54;14.40;71.30
65046;DHT22;54657;52.022;5.534;2022-11-02T09:50:24;14.40;71.60
65046;DHT22;54657;52.022;5.534;2022-11-02T09:53:00;14.40;71.70
65046;DHT22;54657;52.022;5.534;2022-11-02T09:55:31;14.40;71.80
65046;DHT22;54657;52.022;5.534;2022-11-02T09:58:10;14.40;72.20
65046;DHT22;54657;52.022;5.534;2022-11-02T10:00:39;14.50;71.70
65046;DHT22;54657;52.022;5.534;2022-11-02T10:03:24;14.50;71.60
65046;DHT22;54657;52.022;5.534;2022-11-02T10:06:10;14.60;71.50
65046;DHT22;54657;52.022;5.534;2022-11-02T10:08:56;14.50;71.40
65046;DHT22;54657;52.022;5.534;2022-11-02T10:14:28;14.60;71.50
65046;DHT22;54657;52.022;5.534;2022-11-02T10:19:23;14.80;71.00
65046;DHT22;54657;52.022;5.534;2022-11-02T10:21:55;14.80;71.10
65046;DHT22;54657;52.022;5.534;2022-11-02T10:24:22;14.80;70.60
65046;DHT22;54657;52.022;5.534;2022-11-02T10:26:53;14.80;70.80
65046;DHT22;54657;52.022;5.534;2022-11-02T10:32:12;14.80;70.40
65046;DHT22;54657;52.022;5.534;2022-11-02T10:34:39;14.90;70.50
65046;DHT22;54657;52.022;5.534;2022-11-02T10:42:23;15.00;70.50
65046;DHT22;54657;52.022;5.534;2022-11-02T10:45:28;15.00;70.20
65046;DHT22;54657;52.022;5.534;2022-11-02T10:48:06;15.00;70.00
65046;DHT22;54657;52.022;5.534;2022-11-02T10:50:52;15.00;69.80
65046;DHT22;54657;52.022;5.534;2022-11-02T10:53:20;15.00;69.80
65046;DHT22;54657;52.022;5.534;2022-11-02T10:55:51;15.00;70.00
65046;DHT22;54657;52.022;5.534;2022-11-02T10:58:20;15.00;70.00
65046;DHT22;54657;52.022;5.534;2022-11-02T11:00:46;15.10;70.10
65046;DHT22;54657;52.022;5.534;2022-11-02T11:03:13;15.20;70.00
65046;DHT22;54657;52.022;5.534;2022-11-02T11:06:01;15.20;69.80
65046;DHT22;54657;52.022;5.534;2022-11-02T11:08:39;15.30;69.10
65046;DHT22;54657;52.022;5.534;2022-11-02T11:11:27;15.30;69.40
65046;DHT22;54657;52.022;5.534;2022-11-02T11:14:12;15.20;67.40
65046;DHT22;54657;52.022;5.534;2022-11-02T11:16:42;15.30;69.40
65046;DHT22;54657;52.022;5.534;2022-11-02T11:19:33;15.30;69.50
65046;DHT22;54657;52.022;5.534;2022-11-02T11:21:59;15.40;69.40
65046;DHT22;54657;52.022;5.534;2022-11-02T11:24:33;15.30;69.50
65046;DHT22;54657;52.022;5.534;2022-11-02T11:27:21;15.40;69.20
65046;DHT22;54657;52.022;5.534;2022-11-02T11:29:56;15.30;69.30
65046;DHT22;54657;52.022;5.534;2022-11-02T11:32:29;15.30;69.00
65046;DHT22;54657;52.022;5.534;2022-11-02T11:35:02;15.40;69.10
65046;DHT22;54657;52.022;5.534;2022-11-02T11:37:29;15.40;68.70
65046;DHT22;54657;52.022;5.534;2022-11-02T11:39:58;15.40;69.00
65046;DHT22;54657;52.022;5.534;2022-11-02T11:42:28;15.40;68.80
65046;DHT22;54657;52.022;5.534;2022-11-02T11:44:58;15.50;68.90
65046;DHT22;54657;52.022;5.534;2022-11-02T11:47:29;15.50;68.10
65046;DHT22;54657;52.022;5.534;2022-11-02T11:49:56;15.50;68.40
65046;DHT22;54657;52.022;5.534;2022-11-02T11:52:29;15.60;68.40
65046;DHT22;54657;52.022;5.534;2022-11-02T11:54:57;15.60;67.80
65046;DHT22;54657;52.022;5.534;2022-11-02T11:57:31;15.60;67.60
65046;DHT22;54657;52.022;5.534;2022-11-02T11:59:59;15.70;67.80
65046;DHT22;54657;52.022;5.534;2022-11-02T12:02:33;15.70;68.10
65046;DHT22;54657;52.022;5.534;2022-11-02T12:05:18;15.70;67.90
65046;DHT22;54657;52.022;5.534;2022-11-02T12:10:51;15.70;67.30
65046;DHT22;54657;52.022;5.534;2022-11-02T12:22:28;15.70;64.50
65046;DHT22;54657;52.022;5.534;2022-11-02T12:25:16;15.60;67.60
65046;DHT22;54657;52.022;5.534;2022-11-02T12:30:16;15.50;67.70
65046;DHT22;54657;52.022;5.534;2022-11-02T12:35:46;15.60;67.40
65046;DHT22;54657;52.022;5.534;2022-11-02T12:38:42;15.60;66.30
65046;DHT22;54657;52.022;5.534;2022-11-02T12:41:12;15.50;66.90
65046;DHT22;54657;52.022;5.534;2022-11-02T12:43:50;15.50;67.30
65046;DHT22;54657;52.022;5.534;2022-11-02T12:46:54;15.60;67.20
65046;DHT22;54657;52.022;5.534;2022-11-02T12:49:38;15.60;65.60
65046;DHT22;54657;52.022;5.534;2022-11-02T12:54:46;15.60;66.70
65046;DHT22;54657;52.022;5.534;2022-11-02T12:57:15;15.80;67.10
65046;DHT22;54657;52.022;5.534;2022-11-02T12:59:43;15.70;66.70
65046;DHT22;54657;52.022;5.534;2022-11-02T13:02:11;15.80;66.70
65046;DHT22;54657;52.022;5.534;2022-11-02T13:04:54;15.80;66.50
65046;DHT22;54657;52.022;5.534;2022-11-02T13:07:40;15.80;64.20
65046;DHT22;54657;52.022;5.534;2022-11-02T13:10:18;15.70;65.40
65046;DHT22;54657;52.022;5.534;2022-11-02T13:12:47;15.70;65.00
65046;DHT22;54657;52.022;5.534;2022-11-02T13:15:16;15.70;66.30
65046;DHT22;54657;52.022;5.534;2022-11-02T13:17:46;15.70;66.10
65046;DHT22;54657;52.022;5.534;2022-11-02T13:20:23;15.70;65.50
65046;DHT22;54657;52.022;5.534;2022-11-02T13:23:05;15.70;65.00
65046;DHT22;54657;52.022;5.534;2022-11-02T13:25:41;15.70;65.50
65046;DHT22;54657;52.022;5.534;2022-11-02T13:28:15;15.70;65.30
65046;DHT22;54657;52.022;5.534;2022-11-02T13:30:44;15.70;65.50
65046;DHT22;54657;52.022;5.534;2022-11-02T13:33:17;15.80;66.10
65046;DHT22;54657;52.022;5.534;2022-11-02T13:35:45;15.80;65.20
65046;DHT22;54657;52.022;5.534;2022-11-02T13:40:40;15.80;65.50
65046;DHT22;54657;52.022;5.534;2022-11-02T13:43:33;15.80;65.70
65046;DHT22;54657;52.022;5.534;2022-11-02T13:48:52;15.70;65.70
65046;DHT22;54657;52.022;5.534;2022-11-02T13:53:57;15.80;65.60
65046;DHT22;54657;52.022;5.534;2022-11-02T13:56:27;15.80;65.40
65046;DHT22;54657;52.022;5.534;2022-11-02T13:59:20;15.70;65.50
65046;DHT22;54657;52.022;5.534;2022-11-02T14:01:50;15.80;63.00
65046;DHT22;54657;52.022;5.534;2022-11-02T14:04:17;15.70;65.70
65046;DHT22;54657;52.022;5.534;2022-11-02T14:09:35;15.70;65.70
65046;DHT22;54657;52.022;5.534;2022-11-02T14:12:12;15.60;64.80
65046;DHT22;54657;52.022;5.534;2022-11-02T14:14:44;15.60;65.00
65046;DHT22;54657;52.022;5.534;2022-11-02T14:17:14;15.60;66.10
65046;DHT22;54657;52.022;5.534;2022-11-02T14:19:50;15.50;66.00
65046;DHT22;54657;52.022;5.534;2022-11-02T14:22:19;15.50;65.30
65046;DHT22;54657;52.022;5.534;2022-11-02T14:32:28;15.50;66.00
65046;DHT22;54657;52.022;5.534;2022-11-02T14:35:27;15.50;66.00
65046;DHT22;54657;52.022;5.534;2022-11-02T14:41:06;15.40;66.40
65046;DHT22;54657;52.022;5.534;2022-11-02T14:49:05;15.50;66.10
65046;DHT22;54657;52.022;5.534;2022-11-02T14:51:40;15.40;66.50
65046;DHT22;54657;52.022;5.534;2022-11-02T14:54:16;15.50;66.40
65046;DHT22;54657;52.022;5.534;2022-11-02T14:56:52;15.50;65.70
65046;DHT22;54657;52.022;5.534;2022-11-02T14:59:24;15.50;66.80
65046;DHT22;54657;52.022;5.534;2022-11-02T15:01:54;15.40;66.10
65046;DHT22;54657;52.022;5.534;2022-11-02T15:04:21;15.40;66.40
65046;DHT22;54657;52.022;5.534;2022-11-02T15:06:54;15.40;66.40
65046;DHT22;54657;52.022;5.534;2022-11-02T15:09:53;15.40;66.30
65046;DHT22;54657;52.022;5.534;2022-11-02T15:12:29;15.30;64.50
65046;DHT22;54657;52.022;5.534;2022-11-02T15:15:23;15.30;66.10
65046;DHT22;54657;52.022;5.534;2022-11-02T15:17:51;15.20;66.30
65046;DHT22;54657;52.022;5.534;2022-11-02T15:20:29;15.20;66.60
65046;DHT22;54657;52.022;5.534;2022-11-02T15:25:45;15.20;65.60
65046;DHT22;54657;52.022;5.534;2022-11-02T15:28:15;15.20;66.70
65046;DHT22;54657;52.022;5.534;2022-11-02T15:30:44;15.10;66.60
65046;DHT22;54657;52.022;5.534;2022-11-02T15:33:30;15.00;66.70
65046;DHT22;54657;52.022;5.534;2022-11-02T15:35:59;15.00;66.70
65046;DHT22;54657;52.022;5.534;2022-11-02T15:38:27;15.00;66.90
65046;DHT22;54657;52.022;5.534;2022-11-02T15:49:54;14.80;66.70
65046;DHT22;54657;52.022;5.534;2022-11-02T15:55:37;14.90;66.90
65046;DHT22;54657;52.022;5.534;2022-11-02T16:03:50;14.70;66.60
65046;DHT22;54657;52.022;5.534;2022-11-02T16:06:42;14.70;67.40
65046;DHT22;54657;52.022;5.534;2022-11-02T16:09:44;14.60;67.20
65046;DHT22;54657;52.022;5.534;2022-11-02T16:12:21;14.50;67.00
65046;DHT22;54657;52.022;5.534;2022-11-02T16:15:11;14.50;67.50
65046;DHT22;54657;52.022;5.534;2022-11-02T16:17:38;14.50;67.20
65046;DHT22;54657;52.022;5.534;2022-11-02T16:20:17;14.40;67.70
65046;DHT22;54657;52.022;5.534;2022-11-02T16:23:06;14.40;67.70
65046;DHT22;54657;52.022;5.534;2022-11-02T16:25:44;14.30;67.50
65046;DHT22;54657;52.022;5.534;2022-11-02T16:30:42;14.30;67.90
65046;DHT22;54657;52.022;5.534;2022-11-02T16:33:13;14.20;67.90
65046;DHT22;54657;52.022;5.534;2022-11-02T16:35:38;14.30;67.90
65046;DHT22;54657;52.022;5.534;2022-11-02T16:38:05;14.20;67.90
65046;DHT22;54657;52.022;5.534;2022-11-02T16:40:31;14.20;67.80
65046;DHT22;54657;52.022;5.534;2022-11-02T16:42:56;14.20;67.80
65046;DHT22;54657;52.022;5.534;2022-11-02T16:45:32;14.20;67.90
65046;DHT22;54657;52.022;5.534;2022-11-02T16:47:58;14.20;67.80
65046;DHT22;54657;52.022;5.534;2022-11-02T16:50:26;14.20;67.80
65046;DHT22;54657;52.022;5.534;2022-11-02T16:52:57;14.20;67.80
65046;DHT22;54657;52.022;5.534;2022-11-02T16:55:42;14.10;67.70
65046;DHT22;54657;52.022;5.534;2022-11-02T16:58:15;14.10;67.40
65046;DHT22;54657;52.022;5.534;2022-11-02T17:00:58;14.10;67.70
65046;DHT22;54657;52.022;5.534;2022-11-02T17:03:34;14.00;67.70
65046;DHT22;54657;52.022;5.534;2022-11-02T17:06:03;14.00;67.60
65046;DHT22;54657;52.022;5.534;2022-11-02T17:08:32;14.00;67.70
65046;DHT22;54657;52.022;5.534;2022-11-02T17:11:02;14.00;67.60
65046;DHT22;54657;52.022;5.534;2022-11-02T17:13:30;14.00;67.50
65046;DHT22;54657;52.022;5.534;2022-11-02T17:16:11;13.90;67.60
65046;DHT22;54657;52.022;5.534;2022-11-02T17:18:37;13.90;67.40
65046;DHT22;54657;52.022;5.534;2022-11-02T17:23:43;13.90;67.60
65046;DHT22;54657;52.022;5.534;2022-11-02T17:28:49;13.90;67.30
65046;DHT22;54657;52.022;5.534;2022-11-02T17:33:42;13.80;67.50
65046;DHT22;54657;52.022;5.534;2022-11-02T17:36:08;13.80;67.40
65046;DHT22;54657;52.022;5.534;2022-11-02T17:38:34;13.80;67.30
65046;DHT22;54657;52.022;5.534;2022-11-02T17:41:00;13.70;67.30
65046;DHT22;54657;52.022;5.534;2022-11-02T17:43:26;13.80;67.60
65046;DHT22;54657;52.022;5.534;2022-11-02T17:45:58;13.70;67.40
65046;DHT22;54657;52.022;5.534;2022-11-02T17:48:27;13.70;67.30